createdAt,value
2022-10-15T00:02:33.434Z,1.20
2022-10-15T00:05:41.651Z,2.72
2022-10-15T00:08:46.724Z,2.50
2022-10-15T00:11:50.667Z,2.65
2022-10-15T00:14:53.568Z,2.28
2022-10-15T00:17:57.553Z,1.80
2022-10-15T00:21:01.689Z,1.77
2022-10-15T00:24:05.830Z,2.50
2022-10-15T00:27:08.717Z,3.53
2022-10-15T00:30:12.941Z,3.17
2022-10-15T00:33:17.620Z,3.97
2022-10-15T00:36:26.223Z,4.43
2022-10-15T00:39:30.752Z,4.10
2022-10-15T00:42:34.087Z,3.90
2022-10-15T00:45:38.110Z,2.40
2022-10-15T00:48:41.728Z,1.70
2022-10-15T00:51:50.449Z,1.60
2022-10-15T00:55:00.605Z,1.08
2022-10-15T01:01:22.254Z,1.23
2022-10-15T01:04:25.775Z,0.80
2022-10-15T01:07:29.894Z,1.23
2022-10-15T01:10:57.161Z,1.10
2022-10-15T01:14:44.160Z,1.10
2022-10-15T01:18:08.892Z,1.60
2022-10-15T01:21:22.783Z,1.10
2022-10-15T01:24:47.123Z,1.40
2022-10-15T01:28:05.767Z,0.90
2022-10-15T01:31:33.352Z,1.25
2022-10-15T01:34:54.712Z,1.00
2022-10-15T01:38:06.143Z,1.87
2022-10-15T01:41:21.335Z,2.38
2022-10-15T01:44:34.937Z,1.40
2022-10-15T01:48:05.111Z,1.13
2022-10-15T01:51:11.520Z,0.57
2022-10-15T01:54:18.955Z,0.80
2022-10-15T01:57:26.388Z,0.98
2022-10-15T02:00:30.687Z,1.45
2022-10-15T02:03:49.990Z,1.85
2022-10-15T02:07:21.053Z,0.90
2022-10-15T02:10:29.839Z,0.83
2022-10-15T02:14:01.174Z,1.40
2022-10-15T02:17:10.847Z,0.70
2022-10-15T02:20:25.487Z,1.02
2022-10-15T02:23:39.490Z,1.05
2022-10-15T02:26:44.706Z,1.00
2022-10-15T02:29:53.283Z,2.42
2022-10-15T02:33:00.256Z,2.08
2022-10-15T02:36:04.521Z,1.73
2022-10-15T02:39:18.924Z,1.25
2022-10-15T02:42:23.896Z,1.10
2022-10-15T02:45:28.191Z,1.10
2022-10-15T02:48:32.006Z,1.33
2022-10-15T02:51:36.995Z,0.90
2022-10-15T02:54:40.723Z,0.85
2022-10-15T02:57:44.903Z,1.23
2022-10-15T03:00:49.602Z,1.02
2022-10-15T03:03:54.624Z,1.30
2022-10-15T03:06:58.704Z,1.00
2022-10-15T03:10:03.366Z,1.27
2022-10-15T03:13:08.196Z,3.30
2022-10-15T03:16:20.905Z,2.67
2022-10-15T03:19:24.533Z,1.40
2022-10-15T03:22:30.595Z,3.08
2022-10-15T03:25:34.071Z,3.05
2022-10-15T03:28:40.628Z,1.17
2022-10-15T03:31:43.665Z,1.30
2022-10-15T03:34:47.434Z,1.08
2022-10-15T03:37:53.262Z,2.95
2022-10-15T03:40:57.278Z,2.45
2022-10-15T03:44:12.326Z,4.63
2022-10-15T03:47:20.704Z,2.85
2022-10-15T03:50:25.960Z,4.03
2022-10-15T03:53:29.531Z,1.33
2022-10-15T03:56:33.439Z,2.50
2022-10-15T03:59:54.216Z,1.40
2022-10-15T04:02:59.504Z,1.20
2022-10-15T04:06:04.455Z,1.10
2022-10-15T04:09:09.231Z,1.77
2022-10-15T04:12:12.821Z,2.03
2022-10-15T04:15:16.539Z,1.70
2022-10-15T04:18:32.054Z,2.38
2022-10-15T04:21:35.500Z,3.88
2022-10-15T04:24:41.134Z,5.78
2022-10-15T04:27:44.142Z,4.78
2022-10-15T04:30:52.060Z,1.30
2022-10-15T04:33:57.509Z,1.50
2022-10-15T04:37:02.682Z,2.55
2022-10-15T04:40:06.525Z,0.93
2022-10-15T04:43:10.342Z,1.05
2022-10-15T04:46:14.988Z,1.43
2022-10-15T04:49:18.987Z,1.95
2022-10-15T04:52:23.497Z,1.30
2022-10-15T04:55:33.232Z,1.52
2022-10-15T04:58:38.359Z,1.40
2022-10-15T05:01:42.440Z,1.27
2022-10-15T05:04:46.317Z,2.22
2022-10-15T05:07:50.328Z,1.73
2022-10-15T05:10:54.294Z,1.27
2022-10-15T05:13:58.591Z,1.60
2022-10-15T05:17:02.852Z,1.27
2022-10-15T05:20:12.014Z,1.13
2022-10-15T05:23:16.013Z,1.33
2022-10-15T05:26:30.051Z,1.60
2022-10-15T05:29:34.206Z,1.23
2022-10-15T05:32:38.353Z,0.87
2022-10-15T05:35:46.523Z,1.52
2022-10-15T05:38:59.663Z,4.00
2022-10-15T05:42:02.731Z,1.63
2022-10-15T05:45:16.827Z,0.95
2022-10-15T05:48:19.727Z,2.50
2022-10-15T05:51:24.410Z,2.42
2022-10-15T05:54:30.898Z,3.83
2022-10-15T05:57:33.696Z,2.92
2022-10-15T06:00:40.531Z,1.58
2022-10-15T06:03:44.715Z,2.60
2022-10-15T06:06:48.351Z,1.70
2022-10-15T06:09:51.305Z,2.03
2022-10-15T06:12:54.773Z,1.70
2022-10-15T06:15:57.659Z,0.98
2022-10-15T06:19:01.310Z,1.00
2022-10-15T06:22:04.937Z,1.65
2022-10-15T06:25:09.094Z,2.60
2022-10-15T06:28:12.222Z,1.77
2022-10-15T06:31:18.278Z,2.00
2022-10-15T06:34:21.213Z,2.60
2022-10-15T06:37:25.271Z,1.48
2022-10-15T06:40:31.508Z,3.95
2022-10-15T06:43:36.178Z,2.65
2022-10-15T06:46:39.705Z,3.72
2022-10-15T06:49:43.218Z,4.70
2022-10-15T06:52:46.174Z,4.50
2022-10-15T06:55:49.782Z,2.25
2022-10-15T06:58:52.569Z,3.25
2022-10-15T07:01:56.115Z,2.55
2022-10-15T07:04:59.720Z,2.80
2022-10-15T07:08:03.372Z,3.70
2022-10-15T07:11:09.805Z,3.33
2022-10-15T07:14:13.623Z,3.42
2022-10-15T07:17:17.341Z,3.03
2022-10-15T07:20:23.582Z,1.87
2022-10-15T07:23:28.354Z,4.15
2022-10-15T07:26:32.231Z,2.55
2022-10-15T07:29:38.102Z,1.63
2022-10-15T07:32:44.440Z,1.90
2022-10-15T07:35:50.022Z,2.07
2022-10-15T07:38:54.243Z,2.70
2022-10-15T07:41:57.372Z,3.13
2022-10-15T07:45:01.429Z,1.27
2022-10-15T07:48:05.354Z,2.08
2022-10-15T07:51:09.420Z,2.13
2022-10-15T07:54:13.154Z,1.48
2022-10-15T07:57:18.401Z,1.83
2022-10-15T08:00:23.781Z,2.33
2022-10-15T08:03:28.036Z,2.58
2022-10-15T08:06:33.257Z,1.83
2022-10-15T08:09:36.907Z,1.52
2022-10-15T08:12:40.761Z,1.30
2022-10-15T08:15:44.605Z,2.70
2022-10-15T08:18:48.264Z,1.50
2022-10-15T08:21:52.132Z,1.50
2022-10-15T08:24:55.753Z,1.48
2022-10-15T08:28:00.663Z,4.90
2022-10-15T08:31:05.960Z,2.60
2022-10-15T08:34:10.544Z,2.20
2022-10-15T08:40:23.825Z,1.40
2022-10-15T08:43:48.423Z,1.80
2022-10-15T08:47:19.413Z,2.63
2022-10-15T08:50:42.931Z,2.58
2022-10-15T08:53:54.768Z,3.37
2022-10-15T08:57:18.367Z,3.03
2022-10-15T09:00:28.801Z,2.40
2022-10-15T09:03:50.088Z,2.42
2022-10-15T09:07:04.509Z,3.00
2022-10-15T09:10:28.131Z,2.23
2022-10-15T09:13:41.364Z,3.75
2022-10-15T09:16:49.214Z,2.70
2022-10-15T09:19:58.007Z,4.70
2022-10-15T09:23:01.912Z,4.88
2022-10-15T09:26:31.693Z,4.27
2022-10-15T09:29:44.589Z,3.30
2022-10-15T09:33:09.294Z,2.10
2022-10-15T09:36:30.947Z,2.00
2022-10-15T09:39:40.483Z,2.85
2022-10-15T09:42:45.484Z,3.70
2022-10-15T09:45:50.123Z,3.33
2022-10-15T09:49:04.597Z,4.22
2022-10-15T09:52:12.509Z,3.70
2022-10-15T09:55:31.996Z,3.00
2022-10-15T09:58:44.812Z,4.70
2022-10-15T10:02:03.088Z,3.63
2022-10-15T10:05:33.060Z,3.97
2022-10-15T10:08:42.292Z,3.80
2022-10-15T10:11:52.634Z,3.38
2022-10-15T10:15:19.623Z,3.00
2022-10-15T10:18:25.982Z,3.30
2022-10-15T10:21:35.833Z,4.22
2022-10-15T10:24:39.705Z,2.63
2022-10-15T10:27:46.504Z,4.13
2022-10-15T10:30:52.421Z,2.60
2022-10-15T10:33:56.617Z,2.40
2022-10-15T10:37:04.987Z,3.08
2022-10-15T10:40:27.920Z,4.07
2022-10-15T10:43:38.987Z,4.78
2022-10-15T10:46:42.559Z,3.63
2022-10-15T10:49:54.675Z,2.33
2022-10-15T10:53:00.586Z,1.90
2022-10-15T10:56:11.324Z,2.22
2022-10-15T10:59:20.755Z,2.33
2022-10-15T11:02:25.596Z,2.07
2022-10-15T11:05:33.780Z,2.65
2022-10-15T11:09:26.403Z,2.38
2022-10-15T11:12:40.885Z,3.55
2022-10-15T11:15:44.131Z,2.63
2022-10-15T11:19:43.940Z,2.97
2022-10-15T11:22:53.225Z,3.42
2022-10-15T11:26:26.585Z,3.33
2022-10-15T11:29:51.158Z,3.03
2022-10-15T11:33:23.702Z,2.90
2022-10-15T11:36:42.231Z,2.30
2022-10-15T11:40:14.412Z,1.40
2022-10-15T11:43:35.943Z,1.67
2022-10-15T11:46:44.226Z,1.58
2022-10-15T11:50:08.288Z,2.47
2022-10-15T11:53:38.213Z,2.97
2022-10-15T11:56:46.926Z,2.03
2022-10-15T11:59:59.298Z,1.92
2022-10-15T12:03:28.020Z,2.63
2022-10-15T12:06:37.787Z,3.00
2022-10-15T12:09:45.275Z,2.63
2022-10-15T12:13:11.437Z,3.15
2022-10-15T12:16:42.574Z,4.18
2022-10-15T12:19:54.834Z,3.92
2022-10-15T12:23:01.579Z,3.45
2022-10-15T12:26:25.193Z,4.53
2022-10-15T12:29:29.548Z,4.05
2022-10-15T12:32:40.552Z,4.10
2022-10-15T12:35:43.712Z,4.20
2022-10-15T12:39:40.303Z,3.78
2022-10-15T12:42:51.336Z,2.80
2022-10-15T12:45:59.217Z,3.72
2022-10-15T12:49:43.817Z,2.78
2022-10-15T12:52:50.659Z,2.95
2022-10-15T12:56:12.442Z,2.53
2022-10-15T12:59:34.036Z,2.53
2022-10-15T13:05:54.272Z,2.92
2022-10-15T13:09:13.185Z,2.70
2022-10-15T13:12:27.977Z,2.60
2022-10-15T13:15:33.723Z,2.27
2022-10-15T13:18:37.751Z,2.20
2022-10-15T13:21:58.600Z,2.60
2022-10-15T13:25:05.501Z,2.70
2022-10-15T13:28:48.831Z,2.53
2022-10-15T13:31:54.183Z,3.50
2022-10-15T13:34:58.124Z,2.60
2022-10-15T13:38:01.996Z,2.88
2022-10-15T13:41:05.032Z,2.67
2022-10-15T13:44:22.347Z,2.90
2022-10-15T13:47:37.668Z,4.13
2022-10-15T13:50:41.156Z,4.75
2022-10-15T13:53:44.863Z,4.00
2022-10-15T13:56:56.358Z,3.80
2022-10-15T13:59:59.673Z,5.05
2022-10-15T14:03:10.787Z,4.23
2022-10-15T14:06:37.142Z,3.63
2022-10-15T14:09:41.441Z,1.90
2022-10-15T14:12:44.749Z,1.70
2022-10-15T14:15:51.466Z,2.25
2022-10-15T14:19:07.594Z,3.80
2022-10-15T14:22:18.889Z,3.90
2022-10-15T14:25:26.062Z,4.65
2022-10-15T14:28:32.426Z,4.53
2022-10-15T14:31:42.031Z,2.67
2022-10-15T14:34:45.027Z,4.57
2022-10-15T14:37:49.049Z,3.25
2022-10-15T14:41:07.153Z,3.65
2022-10-15T14:44:14.237Z,2.08
2022-10-15T14:47:26.842Z,1.20
2022-10-15T14:50:33.464Z,1.50
2022-10-15T14:53:40.155Z,1.38
2022-10-15T14:56:43.165Z,1.38
2022-10-15T14:59:46.027Z,1.30
2022-10-15T15:02:49.811Z,1.10
2022-10-15T15:05:55.320Z,1.10
2022-10-15T15:08:58.320Z,0.75
2022-10-15T15:12:01.826Z,0.50
2022-10-15T15:15:13.386Z,0.82
2022-10-15T15:18:16.946Z,1.00
2022-10-15T15:21:24.101Z,0.90
2022-10-15T15:24:27.342Z,0.70
2022-10-15T15:27:37.635Z,1.00
2022-10-15T15:30:43.597Z,1.75
2022-10-15T15:33:46.981Z,1.10
2022-10-15T15:36:52.735Z,1.30
2022-10-15T15:39:56.801Z,0.88
2022-10-15T15:43:00.610Z,1.50
2022-10-15T15:46:04.183Z,1.85
2022-10-15T15:49:07.789Z,1.60
2022-10-15T15:52:19.714Z,1.60
2022-10-15T15:55:23.918Z,1.55
2022-10-15T15:58:27.181Z,0.70
2022-10-15T16:01:30.857Z,0.70
2022-10-15T16:04:35.086Z,0.98
2022-10-15T16:07:38.667Z,0.80
2022-10-15T16:10:41.593Z,1.13
2022-10-15T16:13:45.245Z,0.70
2022-10-15T16:16:48.797Z,0.65
2022-10-15T16:19:52.849Z,1.25
2022-10-15T16:22:56.544Z,1.57
2022-10-15T16:26:00.127Z,0.95
2022-10-15T16:29:04.080Z,1.13
2022-10-15T16:32:06.959Z,0.70
2022-10-15T16:35:10.634Z,0.70
2022-10-15T16:38:13.561Z,0.83
2022-10-15T16:41:20.171Z,1.42
2022-10-15T16:44:23.811Z,1.67
2022-10-15T16:47:27.383Z,1.83
2022-10-15T16:50:32.530Z,2.65
2022-10-15T16:53:38.240Z,1.20
2022-10-15T16:56:42.106Z,1.00
2022-10-15T16:59:45.425Z,0.70
2022-10-15T17:02:48.426Z,1.17
2022-10-15T17:05:58.100Z,1.30
2022-10-15T17:09:06.191Z,0.60
2022-10-15T17:12:10.195Z,0.60
2022-10-15T17:15:13.740Z,0.60
2022-10-15T17:18:17.029Z,1.77
2022-10-15T17:21:23.237Z,1.90
2022-10-15T17:24:26.627Z,1.20
2022-10-15T17:27:29.839Z,1.70
2022-10-15T17:30:37.396Z,1.27
2022-10-15T17:33:42.320Z,1.75
2022-10-15T17:36:49.049Z,2.03
2022-10-15T17:39:53.442Z,2.07
2022-10-15T17:42:57.461Z,1.40
2022-10-15T17:46:06.706Z,2.72
2022-10-15T17:49:11.805Z,2.13
2022-10-15T17:52:15.596Z,2.65
2022-10-15T17:55:18.491Z,2.23
2022-10-15T17:58:22.177Z,2.53
2022-10-15T18:01:39.233Z,2.63
2022-10-15T18:04:49.664Z,2.88
2022-10-15T18:07:53.650Z,2.20
2022-10-15T18:10:56.498Z,2.00
2022-10-15T18:14:00.050Z,1.27
2022-10-15T18:17:02.968Z,1.13
2022-10-15T18:20:06.318Z,1.88
2022-10-15T18:23:10.141Z,1.85
2022-10-15T18:26:19.540Z,2.00
2022-10-15T18:29:24.363Z,1.90
2022-10-15T18:32:27.800Z,2.20
2022-10-15T18:35:30.745Z,1.70
2022-10-15T18:38:34.829Z,2.08
2022-10-15T18:41:39.393Z,1.90
2022-10-15T18:44:42.823Z,2.58
2022-10-15T18:47:46.405Z,2.40
2022-10-15T18:50:50.057Z,1.65
2022-10-15T18:53:53.898Z,2.00
2022-10-15T18:56:56.779Z,2.70
2022-10-15T19:00:00.055Z,3.53
2022-10-15T19:03:03.258Z,1.90
2022-10-15T19:06:07.046Z,1.60
2022-10-15T19:09:13.043Z,2.10
2022-10-15T19:12:16.132Z,2.53
2022-10-15T19:15:19.738Z,2.22
2022-10-15T19:18:23.358Z,2.55
2022-10-15T19:21:27.238Z,3.28
2022-10-15T19:24:31.172Z,4.15
2022-10-15T19:27:35.416Z,4.67
2022-10-15T19:30:38.470Z,6.43
2022-10-15T19:33:44.411Z,4.68
2022-10-15T19:36:49.078Z,3.38
2022-10-15T19:39:52.461Z,1.90
2022-10-15T19:42:57.132Z,1.30
2022-10-15T19:46:04.413Z,1.00
2022-10-15T19:49:09.665Z,1.05
2022-10-15T19:52:13.575Z,1.70
2022-10-15T19:55:21.982Z,1.50
2022-10-15T19:58:26.752Z,2.53
2022-10-15T20:01:30.884Z,3.92
2022-10-15T20:04:34.506Z,3.25
2022-10-15T20:07:37.468Z,2.53
2022-10-15T20:10:43.064Z,1.20
2022-10-15T20:13:46.252Z,1.10
2022-10-15T20:16:49.838Z,1.60
2022-10-15T20:19:54.131Z,1.88
2022-10-15T20:22:58.052Z,1.33
2022-10-15T20:26:08.894Z,1.48
2022-10-15T20:29:12.126Z,1.70
2022-10-15T20:32:30.275Z,1.90
2022-10-15T20:35:38.069Z,2.10
2022-10-15T20:38:42.613Z,2.35
2022-10-15T20:41:45.676Z,3.28
2022-10-15T20:44:49.969Z,2.03
2022-10-15T20:47:54.228Z,2.33
2022-10-15T20:50:57.584Z,2.20
2022-10-15T20:54:01.426Z,2.80
2022-10-15T20:57:05.964Z,1.50
2022-10-15T21:00:09.695Z,1.73
2022-10-15T21:03:13.660Z,1.50
2022-10-15T21:06:17.328Z,1.98
2022-10-15T21:09:20.478Z,2.33
2022-10-15T21:12:23.478Z,2.13
2022-10-15T21:15:28.317Z,2.40
2022-10-15T21:18:32.541Z,2.63
2022-10-15T21:21:36.222Z,1.92
2022-10-15T21:24:39.945Z,2.95
2022-10-15T21:27:43.873Z,1.95
2022-10-15T21:30:47.417Z,3.03
2022-10-15T21:33:51.201Z,3.28
2022-10-15T21:36:55.825Z,3.28
2022-10-15T21:39:59.296Z,1.83
2022-10-15T21:43:02.190Z,4.22
2022-10-15T21:46:13.740Z,1.93
2022-10-15T21:49:16.594Z,1.30
2022-10-15T21:52:19.756Z,1.10
2022-10-15T21:55:25.962Z,0.80
2022-10-15T21:58:30.692Z,1.10
2022-10-15T22:01:36.676Z,1.10
2022-10-15T22:04:40.459Z,1.27
2022-10-15T22:07:43.276Z,1.58
2022-10-15T22:10:46.514Z,1.50
2022-10-15T22:13:52.515Z,1.00
2022-10-15T22:16:56.375Z,1.07
2022-10-15T22:19:59.196Z,1.30
2022-10-15T22:23:02.132Z,1.35
2022-10-15T22:26:05.088Z,3.95
2022-10-15T22:29:09.689Z,3.55
2022-10-15T22:32:13.290Z,3.90
2022-10-15T22:35:16.359Z,3.75
2022-10-15T22:38:19.907Z,1.92
2022-10-15T22:41:23.694Z,2.42
2022-10-15T22:44:26.563Z,2.92
2022-10-15T22:47:30.424Z,2.57
2022-10-15T22:50:34.118Z,3.10
2022-10-15T22:53:37.724Z,5.28
2022-10-15T22:56:40.829Z,4.30
2022-10-15T22:59:44.485Z,3.97
2022-10-15T23:02:47.974Z,4.13
2022-10-15T23:05:53.312Z,2.85
2022-10-15T23:08:58.891Z,3.90
2022-10-15T23:12:02.756Z,4.55
2022-10-15T23:15:07.208Z,2.72
2022-10-15T23:18:11.098Z,3.00
2022-10-15T23:21:20.003Z,3.85
2022-10-15T23:24:25.806Z,2.75
2022-10-15T23:27:29.750Z,4.18
2022-10-15T23:30:32.668Z,3.80
2022-10-15T23:33:36.399Z,5.07
2022-10-15T23:36:40.304Z,4.05
2022-10-15T23:39:43.889Z,3.42
2022-10-15T23:42:48.176Z,3.33
2022-10-15T23:45:51.156Z,3.83
2022-10-15T23:48:55.037Z,4.83
2022-10-15T23:51:58.196Z,5.13
2022-10-15T23:55:02.255Z,3.10
2022-10-15T23:58:05.107Z,3.00
